Time;durP1;ratioP1;P1;durP2;ratioP2;P2;SDS_P1;SDS_P2;PMS_P1;PMS_P2;Temp;Humidity;BMP_temperature;BMP_pressure;BME280_temperature;BME280_humidity;BME280_pressure;Samples;Min_cycle;Max_cycle;Signal;HPM_P1;HPM_P2
2021/04/15 00:00:36;;;;;;;15.5;9.650002;;;;;;;-0.83;90.78125;95894.43;;;;
2021/04/15 00:01:39;;;;;;;13.7;10;;;;;;;-0.95;91.27148;95883.72;;;;
2021/04/15 00:02:41;;;;;;;13.7;10;;;;;;;-0.95;91.27148;95883.72;;;;
2021/04/15 00:03:42;;;;;;;13.7;10;;;;;;;-0.95;91.27148;95883.72;;;;
2021/04/15 00:04:43;;;;;;;13.7;10;;;;;;;-0.95;91.27148;95883.72;;;;
2021/04/15 00:05:43;;;;;;;13.7;10;;;;;;;-0.95;91.27148;95883.72;;;;
2021/04/15 00:06:45;;;;;;;13.7;10;;;;;;;-0.95;91.27148;95883.72;;;;
2021/04/15 00:07:46;;;;;;;13.7;10;;;;;;;-0.95;91.27148;95883.72;;;;
2021/04/15 00:08:47;;;;;;;13.7;10;;;;;;;-0.95;91.27148;95883.72;;;;
2021/04/15 00:09:48;;;;;;;13.7;10;;;;;;;-0.95;91.27148;95883.72;;;;
2021/04/15 00:10:48;;;;;;;13.7;10;;;;;;;-0.95;91.27148;95883.72;;;;
2021/04/15 00:11:52;;;;;;;14;9.3;;;;;;;-1.02;91.63867;95888.03;;;;
2021/04/15 00:12:53;;;;;;;14;9.3;;;;;;;-1.02;91.63867;95888.03;;;;
2021/04/15 00:13:54;;;;;;;14;9.3;;;;;;;-1.02;91.63867;95888.03;;;;
2021/04/15 00:14:57;;;;;;;14;9.3;;;;;;;-1.02;91.63867;95888.03;;;;
2021/04/15 00:15:57;;;;;;;14;9.3;;;;;;;-1.02;91.63867;95888.03;;;;
2021/04/15 00:16:59;;;;;;;14;9.3;;;;;;;-1.02;91.63867;95888.03;;;;
2021/04/15 00:18:00;;;;;;;14;9.3;;;;;;;-1.02;91.63867;95888.03;;;;
2021/04/15 00:19:00;;;;;;;14;9.3;;;;;;;-1.02;91.63867;95888.03;;;;
2021/04/15 00:20:01;;;;;;;14;9.3;;;;;;;-1.02;91.63867;95888.03;;;;
2021/04/15 00:21:03;;;;;;;14;9.3;;;;;;;-1.02;91.63867;95888.03;;;;
2021/04/15 00:22:05;;;;;;;14;9.3;;;;;;;-1.02;91.63867;95888.03;;;;
2021/04/15 00:23:06;;;;;;;16.7;10.75;;;;;;;-1;91.99512;95885.16;;;;
2021/04/15 00:24:06;;;;;;;16.7;10.75;;;;;;;-1;91.99512;95885.16;;;;
2021/04/15 00:25:07;;;;;;;16.7;10.75;;;;;;;-1;91.99512;95885.16;;;;
2021/04/15 00:26:09;;;;;;;16.7;10.75;;;;;;;-1;91.99512;95885.16;;;;
2021/04/15 00:27:12;;;;;;;16.7;10.75;;;;;;;-1;91.99512;95885.16;;;;
2021/04/15 00:28:12;;;;;;;16.7;10.75;;;;;;;-1;91.99512;95885.16;;;;
2021/04/15 00:29:13;;;;;;;16.7;10.75;;;;;;;-1;91.99512;95885.16;;;;
2021/04/15 00:30:14;;;;;;;16.7;10.75;;;;;;;-1;91.99512;95885.16;;;;
2021/04/15 00:31:17;;;;;;;16.7;10.75;;;;;;;-1;91.99512;95885.16;;;;
2021/04/15 00:32:18;;;;;;;16.7;10.75;;;;;;;-1;91.99512;95885.16;;;;
2021/04/15 00:33:18;;;;;;;16;10.25;;;;;;;-0.75;92.18457;95877.76;;;;
2021/04/15 00:34:20;;;;;;;16;10.25;;;;;;;-0.75;92.18457;95877.76;;;;
2021/04/15 00:35:20;;;;;;;16;10.25;;;;;;;-0.75;92.18457;95877.76;;;;
2021/04/15 00:36:21;;;;;;;16;10.25;;;;;;;-0.75;92.18457;95877.76;;;;
2021/04/15 00:37:22;;;;;;;16;10.25;;;;;;;-0.75;92.18457;95877.76;;;;
2021/04/15 00:38:23;;;;;;;16;10.25;;;;;;;-0.75;92.18457;95877.76;;;;
2021/04/15 00:39:25;;;;;;;16;10.25;;;;;;;-0.75;92.18457;95877.76;;;;
2021/04/15 00:40:26;;;;;;;16;10.25;;;;;;;-0.75;92.18457;95877.76;;;;
2021/04/15 00:41:27;;;;;;;16;10.25;;;;;;;-0.75;92.18457;95877.76;;;;
2021/04/15 00:42:28;;;;;;;16;10.25;;;;;;;-0.75;92.18457;95877.76;;;;
2021/04/15 00:43:28;;;;;;;16;10.25;;;;;;;-0.75;92.18457;95877.76;;;;
2021/04/15 00:44:32;;;;;;;16.9;11.05;;;;;;;-0.48;92.20215;95875.02;;;;
2021/04/15 00:45:33;;;;;;;16.9;11.05;;;;;;;-0.48;92.20215;95875.02;;;;
2021/04/15 00:46:35;;;;;;;16.9;11.05;;;;;;;-0.48;92.20215;95875.02;;;;
2021/04/15 00:47:48;;;;;;;16.9;11.05;;;;;;;-0.48;92.20215;95875.02;;;;
2021/04/15 00:48:54;;;;;;;16.9;11.05;;;;;;;-0.48;92.20215;95875.02;;;;
2021/04/15 00:49:55;;;;;;;16.9;11.05;;;;;;;-0.48;92.20215;95875.02;;;;
2021/04/15 00:50:58;;;;;;;16.9;11.05;;;;;;;-0.48;92.20215;95875.02;;;;
2021/04/15 00:52:03;;;;;;;16.9;11.05;;;;;;;-0.48;92.20215;95875.02;;;;
2021/04/15 00:53:08;;;;;;;16.9;11.05;;;;;;;-0.48;92.20215;95875.02;;;;
2021/04/15 00:54:13;;;;;;;16.9;11.05;;;;;;;-0.48;92.20215;95875.02;;;;
2021/04/15 00:55:28;;;;;;;15.3;10.85;;;;;;;-0.19;92.20117;95874.72;;;;
2021/04/15 00:56:32;;;;;;;15.3;10.85;;;;;;;-0.19;92.20117;95874.72;;;;
2021/04/15 00:57:33;;;;;;;15.3;10.85;;;;;;;-0.19;92.20117;95874.72;;;;
2021/04/15 00:58:38;;;;;;;15.3;10.85;;;;;;;-0.19;92.20117;95874.72;;;;
2021/04/15 00:59:39;;;;;;;15.3;10.85;;;;;;;-0.19;92.20117;95874.72;;;;
2021/04/15 01:00:40;;;;;;;15.3;10.85;;;;;;;-0.19;92.20117;95874.72;;;;
2021/04/15 01:01:42;;;;;;;15.3;10.85;;;;;;;-0.19;92.20117;95874.72;;;;
2021/04/15 01:02:43;;;;;;;15.3;10.85;;;;;;;-0.19;92.20117;95874.72;;;;
2021/04/15 01:03:44;;;;;;;15.3;10.85;;;;;;;-0.19;92.20117;95874.72;;;;
2021/04/15 01:04:45;;;;;;;15.3;10.85;;;;;;;-0.19;92.20117;95874.72;;;;
2021/04/15 01:05:47;;;;;;;14.85;10.9;;;;;;;0.05;92.1709;95873.07;;;;
2021/04/15 01:06:50;;;;;;;14.85;10.9;;;;;;;0.05;92.1709;95873.07;;;;
2021/04/15 01:07:50;;;;;;;14.85;10.9;;;;;;;0.05;92.1709;95873.07;;;;
2021/04/15 01:08:51;;;;;;;14.85;10.9;;;;;;;0.05;92.1709;95873.07;;;;
2021/04/15 01:09:53;;;;;;;14.85;10.9;;;;;;;0.05;92.1709;95873.07;;;;
2021/04/15 01:10:54;;;;;;;14.85;10.9;;;;;;;0.05;92.1709;95873.07;;;;
2021/04/15 01:12:06;;;;;;;14.85;10.9;;;;;;;0.05;92.1709;95873.07;;;;
2021/04/15 01:13:19;;;;;;;14.85;10.9;;;;;;;0.05;92.1709;95873.07;;;;
2021/04/15 01:14:34;;;;;;;14.85;10.9;;;;;;;0.05;92.1709;95873.07;;;;
2021/04/15 01:15:52;;;;;;;14.45;10.45;;;;;;;0.22;92.27148;95858.87;;;;
2021/04/15 01:17:01;;;;;;;14.45;10.45;;;;;;;0.22;92.27148;95858.87;;;;
2021/04/15 01:18:07;;;;;;;14.45;10.45;;;;;;;0.22;92.27148;95858.87;;;;
2021/04/15 01:19:15;;;;;;;14.45;10.45;;;;;;;0.22;92.27148;95858.87;;;;
2021/04/15 01:20:36;;;;;;;14.45;10.45;;;;;;;0.22;92.27148;95858.87;;;;
2021/04/15 01:23:08;;;;;;;14.45;10.45;;;;;;;0.22;92.27148;95858.87;;;;
2021/04/15 01:24:18;;;;;;;14.45;10.45;;;;;;;0.22;92.27148;95858.87;;;;
2021/04/15 01:25:26;;;;;;;14.45;10.45;;;;;;;0.22;92.27148;95858.87;;;;
2021/04/15 01:26:46;;;;;;;14.05;9.650002;;;;;;;0.26;92.15527;95856.24;;;;
2021/04/15 01:28:08;;;;;;;14.05;9.650002;;;;;;;0.26;92.15527;95856.24;;;;
2021/04/15 01:29:21;;;;;;;14.05;9.650002;;;;;;;0.26;92.15527;95856.24;;;;
2021/04/15 01:30:29;;;;;;;14.05;9.650002;;;;;;;0.26;92.15527;95856.24;;;;
2021/04/15 01:31:40;;;;;;;14.05;9.650002;;;;;;;0.26;92.15527;95856.24;;;;
2021/04/15 01:32:54;;;;;;;14.05;9.650002;;;;;;;0.26;92.15527;95856.24;;;;
2021/04/15 01:34:07;;;;;;;14.05;9.650002;;;;;;;0.26;92.15527;95856.24;;;;
2021/04/15 01:35:13;;;;;;;14.05;9.650002;;;;;;;0.26;92.15527;95856.24;;;;
2021/04/15 01:36:19;;;;;;;14.05;9.650002;;;;;;;0.26;92.15527;95856.24;;;;
2021/04/15 01:37:27;;;;;;;12.9;9.599998;;;;;;;0.11;92.28711;95853.83;;;;
2021/04/15 01:38:35;;;;;;;12.9;9.599998;;;;;;;0.11;92.28711;95853.83;;;;
2021/04/15 01:39:40;;;;;;;12.9;9.599998;;;;;;;0.11;92.28711;95853.83;;;;
2021/04/15 01:40:45;;;;;;;12.9;9.599998;;;;;;;0.11;92.28711;95853.83;;;;
2021/04/15 01:41:50;;;;;;;12.9;9.599998;;;;;;;0.11;92.28711;95853.83;;;;
2021/04/15 01:42:54;;;;;;;12.9;9.599998;;;;;;;0.11;92.28711;95853.83;;;;
2021/04/15 01:44:03;;;;;;;12.9;9.599998;;;;;;;0.11;92.28711;95853.83;;;;
2021/04/15 01:45:11;;;;;;;12.9;9.599998;;;;;;;0.11;92.28711;95853.83;;;;
2021/04/15 01:46:13;;;;;;;12.9;9.599998;;;;;;;0.11;92.28711;95853.83;;;;
2021/04/15 01:47:15;;;;;;;12.9;9.599998;;;;;;;0.11;92.28711;95853.83;;;;
2021/04/15 01:48:20;;;;;;;12.15;9.249999;;;;;;;-0.19;92.31738;95849.03;;;;
2021/04/15 01:49:24;;;;;;;12.15;9.249999;;;;;;;-0.19;92.31738;95849.03;;;;
2021/04/15 01:50:25;;;;;;;12.15;9.249999;;;;;;;-0.19;92.31738;95849.03;;;;
2021/04/15 01:51:31;;;;;;;12.15;9.249999;;;;;;;-0.19;92.31738;95849.03;;;;
2021/04/15 01:52:39;;;;;;;12.15;9.249999;;;;;;;-0.19;92.31738;95849.03;;;;
2021/04/15 01:53:42;;;;;;;12.15;9.249999;;;;;;;-0.19;92.31738;95849.03;;;;
2021/04/15 01:54:47;;;;;;;12.15;9.249999;;;;;;;-0.19;92.31738;95849.03;;;;
2021/04/15 01:55:55;;;;;;;12.15;9.249999;;;;;;;-0.19;92.31738;95849.03;;;;
2021/04/15 01:57:04;;;;;;;12.15;9.249999;;;;;;;-0.19;92.31738;95849.03;;;;
2021/04/15 01:58:10;;;;;;;12.15;9.249999;;;;;;;-0.19;92.31738;95849.03;;;;
2021/04/15 01:59:17;;;;;;;12.55;9.099999;;;;;;;-0.52;92.67969;95845;;;;
2021/04/15 02:00:25;;;;;;;12.55;9.099999;;;;;;;-0.52;92.67969;95845;;;;
2021/04/15 02:01:29;;;;;;;12.55;9.099999;;;;;;;-0.52;92.67969;95845;;;;
2021/04/15 02:02:33;;;;;;;12.55;9.099999;;;;;;;-0.52;92.67969;95845;;;;
2021/04/15 02:03:39;;;;;;;12.55;9.099999;;;;;;;-0.52;92.67969;95845;;;;
2021/04/15 02:04:43;;;;;;;12.55;9.099999;;;;;;;-0.52;92.67969;95845;;;;
2021/04/15 02:05:48;;;;;;;12.55;9.099999;;;;;;;-0.52;92.67969;95845;;;;
2021/04/15 02:06:55;;;;;;;12.55;9.099999;;;;;;;-0.52;92.67969;95845;;;;
2021/04/15 02:08:02;;;;;;;12.55;9.099999;;;;;;;-0.52;92.67969;95845;;;;
2021/04/15 02:09:07;;;;;;;12.55;9.099999;;;;;;;-0.52;92.67969;95845;;;;
2021/04/15 02:10:13;;;;;;;14.6;10.05;;;;;;;-0.8;93.11719;95846.44;;;;
2021/04/15 02:11:15;;;;;;;14.6;10.05;;;;;;;-0.8;93.11719;95846.44;;;;
2021/04/15 02:12:22;;;;;;;14.6;10.05;;;;;;;-0.8;93.11719;95846.44;;;;
2021/04/15 02:13:27;;;;;;;14.6;10.05;;;;;;;-0.8;93.11719;95846.44;;;;
2021/04/15 02:14:34;;;;;;;14.6;10.05;;;;;;;-0.8;93.11719;95846.44;;;;
2021/04/15 02:15:44;;;;;;;14.6;10.05;;;;;;;-0.8;93.11719;95846.44;;;;
2021/04/15 02:16:48;;;;;;;14.6;10.05;;;;;;;-0.8;93.11719;95846.44;;;;
2021/04/15 02:17:52;;;;;;;14.6;10.05;;;;;;;-0.8;93.11719;95846.44;;;;
2021/04/15 02:18:57;;;;;;;14.6;10.05;;;;;;;-0.8;93.11719;95846.44;;;;
2021/04/15 02:20:03;;;;;;;16.05;10.75;;;;;;;-1.1;93.53027;95842.86;;;;
2021/04/15 02:21:08;;;;;;;16.05;10.75;;;;;;;-1.1;93.53027;95842.86;;;;
2021/04/15 02:22:13;;;;;;;16.05;10.75;;;;;;;-1.1;93.53027;95842.86;;;;
2021/04/15 02:23:23;;;;;;;16.05;10.75;;;;;;;-1.1;93.53027;95842.86;;;;
2021/04/15 02:24:28;;;;;;;16.05;10.75;;;;;;;-1.1;93.53027;95842.86;;;;
2021/04/15 02:25:34;;;;;;;16.05;10.75;;;;;;;-1.1;93.53027;95842.86;;;;
2021/04/15 02:26:40;;;;;;;16.05;10.75;;;;;;;-1.1;93.53027;95842.86;;;;
2021/04/15 02:27:42;;;;;;;16.05;10.75;;;;;;;-1.1;93.53027;95842.86;;;;
2021/04/15 02:28:48;;;;;;;16.05;10.75;;;;;;;-1.1;93.53027;95842.86;;;;
2021/04/15 02:29:59;;;;;;;16.05;10.75;;;;;;;-1.1;93.53027;95842.86;;;;
2021/04/15 02:31:08;;;;;;;15.4;9.9;;;;;;;-1.33;94.15918;95836.83;;;;
2021/04/15 02:32:13;;;;;;;15.4;9.9;;;;;;;-1.33;94.15918;95836.83;;;;
2021/04/15 02:33:21;;;;;;;15.4;9.9;;;;;;;-1.33;94.15918;95836.83;;;;
2021/04/15 02:34:24;;;;;;;15.4;9.9;;;;;;;-1.33;94.15918;95836.83;;;;
2021/04/15 02:35:30;;;;;;;15.4;9.9;;;;;;;-1.33;94.15918;95836.83;;;;
2021/04/15 02:36:38;;;;;;;15.4;9.9;;;;;;;-1.33;94.15918;95836.83;;;;
2021/04/15 02:37:44;;;;;;;15.4;9.9;;;;;;;-1.33;94.15918;95836.83;;;;
2021/04/15 02:38:47;;;;;;;15.4;9.9;;;;;;;-1.33;94.15918;95836.83;;;;
2021/04/15 02:39:54;;;;;;;15.4;9.9;;;;;;;-1.33;94.15918;95836.83;;;;
2021/04/15 02:41:00;;;;;;;15.4;9.9;;;;;;;-1.33;94.15918;95836.83;;;;
2021/04/15 02:42:04;;;;;;;15.95;10.2;;;;;;;-1.43;94.52051;95842.19;;;;
2021/04/15 02:43:10;;;;;;;15.95;10.2;;;;;;;-1.43;94.52051;95842.19;;;;
2021/04/15 02:44:18;;;;;;;15.95;10.2;;;;;;;-1.43;94.52051;95842.19;;;;
2021/04/15 02:45:27;;;;;;;15.95;10.2;;;;;;;-1.43;94.52051;95842.19;;;;
2021/04/15 02:46:32;;;;;;;15.95;10.2;;;;;;;-1.43;94.52051;95842.19;;;;
2021/04/15 02:47:38;;;;;;;15.95;10.2;;;;;;;-1.43;94.52051;95842.19;;;;
2021/04/15 02:48:44;;;;;;;15.95;10.2;;;;;;;-1.43;94.52051;95842.19;;;;
2021/04/15 02:49:47;;;;;;;15.95;10.2;;;;;;;-1.43;94.52051;95842.19;;;;
2021/04/15 02:50:52;;;;;;;15.95;10.2;;;;;;;-1.43;94.52051;95842.19;;;;
2021/04/15 02:51:56;;;;;;;16.65;10.25;;;;;;;-1.66;94.49121;95848.39;;;;
2021/04/15 02:53:01;;;;;;;16.65;10.25;;;;;;;-1.66;94.49121;95848.39;;;;
2021/04/15 02:54:09;;;;;;;16.65;10.25;;;;;;;-1.66;94.49121;95848.39;;;;
2021/04/15 02:55:18;;;;;;;16.65;10.25;;;;;;;-1.66;94.49121;95848.39;;;;
2021/04/15 02:56:22;;;;;;;16.65;10.25;;;;;;;-1.66;94.49121;95848.39;;;;
2021/04/15 02:57:27;;;;;;;16.65;10.25;;;;;;;-1.66;94.49121;95848.39;;;;
2021/04/15 02:58:31;;;;;;;16.65;10.25;;;;;;;-1.66;94.49121;95848.39;;;;
2021/04/15 02:59:38;;;;;;;16.65;10.25;;;;;;;-1.66;94.49121;95848.39;;;;
2021/04/15 03:00:43;;;;;;;16.65;10.25;;;;;;;-1.66;94.49121;95848.39;;;;
2021/04/15 03:01:47;;;;;;;16.65;10.25;;;;;;;-1.66;94.49121;95848.39;;;;
2021/04/15 03:02:53;;;;;;;16.3;10.85;;;;;;;-1.86;95.01563;95840.2;;;;
2021/04/15 03:03:59;;;;;;;16.3;10.85;;;;;;;-1.86;95.01563;95840.2;;;;
2021/04/15 03:05:01;;;;;;;16.3;10.85;;;;;;;-1.86;95.01563;95840.2;;;;
2021/04/15 03:06:09;;;;;;;16.3;10.85;;;;;;;-1.86;95.01563;95840.2;;;;
2021/04/15 03:07:13;;;;;;;16.3;10.85;;;;;;;-1.86;95.01563;95840.2;;;;
2021/04/15 03:08:14;;;;;;;16.3;10.85;;;;;;;-1.86;95.01563;95840.2;;;;
2021/04/15 03:09:22;;;;;;;16.3;10.85;;;;;;;-1.86;95.01563;95840.2;;;;
2021/04/15 03:10:24;;;;;;;16.3;10.85;;;;;;;-1.86;95.01563;95840.2;;;;
2021/04/15 03:11:29;;;;;;;16.3;10.85;;;;;;;-1.86;95.01563;95840.2;;;;
2021/04/15 03:12:37;;;;;;;16.3;10.85;;;;;;;-1.86;95.01563;95840.2;;;;
2021/04/15 03:13:47;;;;;;;16.85;10.65;;;;;;;-2.01;95.42578;95837.27;;;;
2021/04/15 03:14:51;;;;;;;16.85;10.65;;;;;;;-2.01;95.42578;95837.27;;;;
2021/04/15 03:15:55;;;;;;;16.85;10.65;;;;;;;-2.01;95.42578;95837.27;;;;
2021/04/15 03:16:59;;;;;;;16.85;10.65;;;;;;;-2.01;95.42578;95837.27;;;;
2021/04/15 03:18:04;;;;;;;16.85;10.65;;;;;;;-2.01;95.42578;95837.27;;;;
2021/04/15 03:19:12;;;;;;;16.85;10.65;;;;;;;-2.01;95.42578;95837.27;;;;
2021/04/15 03:20:18;;;;;;;16.85;10.65;;;;;;;-2.01;95.42578;95837.27;;;;
2021/04/15 03:21:26;;;;;;;16.85;10.65;;;;;;;-2.01;95.42578;95837.27;;;;
2021/04/15 03:22:33;;;;;;;16.85;10.65;;;;;;;-2.01;95.42578;95837.27;;;;
2021/04/15 03:23:41;;;;;;;16.85;10.65;;;;;;;-2.01;95.42578;95837.27;;;;
2021/04/15 03:24:47;;;;;;;17.35;10.6;;;;;;;-2.14;95.58203;95832.31;;;;
2021/04/15 03:25:52;;;;;;;17.35;10.6;;;;;;;-2.14;95.58203;95832.31;;;;
2021/04/15 03:26:57;;;;;;;17.35;10.6;;;;;;;-2.14;95.58203;95832.31;;;;
2021/04/15 03:28:03;;;;;;;17.35;10.6;;;;;;;-2.14;95.58203;95832.31;;;;
2021/04/15 03:29:13;;;;;;;17.35;10.6;;;;;;;-2.14;95.58203;95832.31;;;;
2021/04/15 03:30:21;;;;;;;17.35;10.6;;;;;;;-2.14;95.58203;95832.31;;;;
2021/04/15 03:31:27;;;;;;;17.35;10.6;;;;;;;-2.14;95.58203;95832.31;;;;
2021/04/15 03:32:29;;;;;;;17.35;10.6;;;;;;;-2.14;95.58203;95832.31;;;;
2021/04/15 03:33:36;;;;;;;17.35;10.6;;;;;;;-2.14;95.58203;95832.31;;;;
2021/04/15 03:34:41;;;;;;;17.55;11.2;;;;;;;-2.17;95.75098;95838.39;;;;
2021/04/15 03:35:49;;;;;;;17.55;11.2;;;;;;;-2.17;95.75098;95838.39;;;;
2021/04/15 03:36:57;;;;;;;17.55;11.2;;;;;;;-2.17;95.75098;95838.39;;;;
2021/04/15 03:37:58;;;;;;;17.55;11.2;;;;;;;-2.17;95.75098;95838.39;;;;
2021/04/15 03:39:08;;;;;;;17.55;11.2;;;;;;;-2.17;95.75098;95838.39;;;;
2021/04/15 03:40:14;;;;;;;17.55;11.2;;;;;;;-2.17;95.75098;95838.39;;;;
2021/04/15 03:41:17;;;;;;;17.55;11.2;;;;;;;-2.17;95.75098;95838.39;;;;
2021/04/15 03:42:26;;;;;;;17.55;11.2;;;;;;;-2.17;95.75098;95838.39;;;;
2021/04/15 03:43:33;;;;;;;17.55;11.2;;;;;;;-2.17;95.75098;95838.39;;;;
2021/04/15 03:44:36;;;;;;;17.55;11.2;;;;;;;-2.17;95.75098;95838.39;;;;
2021/04/15 03:45:43;;;;;;;17.45;11.2;;;;;;;-2.23;95.83984;95836.72;;;;
2021/04/15 03:46:48;;;;;;;17.45;11.2;;;;;;;-2.23;95.83984;95836.72;;;;
2021/04/15 03:47:54;;;;;;;17.45;11.2;;;;;;;-2.23;95.83984;95836.72;;;;
2021/04/15 03:49:01;;;;;;;17.45;11.2;;;;;;;-2.23;95.83984;95836.72;;;;
2021/04/15 03:50:06;;;;;;;17.45;11.2;;;;;;;-2.23;95.83984;95836.72;;;;
2021/04/15 03:51:10;;;;;;;17.45;11.2;;;;;;;-2.23;95.83984;95836.72;;;;
2021/04/15 03:52:15;;;;;;;17.45;11.2;;;;;;;-2.23;95.83984;95836.72;;;;
2021/04/15 03:53:21;;;;;;;17.45;11.2;;;;;;;-2.23;95.83984;95836.72;;;;
2021/04/15 03:54:28;;;;;;;17.45;11.2;;;;;;;-2.23;95.83984;95836.72;;;;
2021/04/15 03:55:44;;;;;;;17.45;11.2;;;;;;;-2.23;95.83984;95836.72;;;;
2021/04/15 03:56:52;;;;;;;16.2;10.4;;;;;;;-2.3;95.84473;95837.48;;;;
2021/04/15 03:57:56;;;;;;;16.2;10.4;;;;;;;-2.3;95.84473;95837.48;;;;
2021/04/15 03:59:02;;;;;;;16.2;10.4;;;;;;;-2.3;95.84473;95837.48;;;;
2021/04/15 04:00:08;;;;;;;16.2;10.4;;;;;;;-2.3;95.84473;95837.48;;;;
2021/04/15 04:01:13;;;;;;;16.2;10.4;;;;;;;-2.3;95.84473;95837.48;;;;
2021/04/15 04:02:18;;;;;;;16.2;10.4;;;;;;;-2.3;95.84473;95837.48;;;;
2021/04/15 04:03:23;;;;;;;16.2;10.4;;;;;;;-2.3;95.84473;95837.48;;;;
2021/04/15 04:04:27;;;;;;;16.2;10.4;;;;;;;-2.3;95.84473;95837.48;;;;
2021/04/15 04:05:33;;;;;;;16.2;10.4;;;;;;;-2.3;95.84473;95837.48;;;;
2021/04/15 04:06:38;;;;;;;16.85;10.4;;;;;;;-2.39;96.00098;95846.18;;;;
2021/04/15 04:07:42;;;;;;;16.85;10.4;;;;;;;-2.39;96.00098;95846.18;;;;
2021/04/15 04:08:45;;;;;;;16.85;10.4;;;;;;;-2.39;96.00098;95846.18;;;;
2021/04/15 04:09:49;;;;;;;16.85;10.4;;;;;;;-2.39;96.00098;95846.18;;;;
2021/04/15 04:10:54;;;;;;;16.85;10.4;;;;;;;-2.39;96.00098;95846.18;;;;
2021/04/15 04:11:56;;;;;;;16.85;10.4;;;;;;;-2.39;96.00098;95846.18;;;;
2021/04/15 04:13:00;;;;;;;16.85;10.4;;;;;;;-2.39;96.00098;95846.18;;;;
2021/04/15 04:14:16;;;;;;;16.85;10.4;;;;;;;-2.39;96.00098;95846.18;;;;
2021/04/15 04:15:22;;;;;;;16.85;10.4;;;;;;;-2.39;96.00098;95846.18;;;;
2021/04/15 04:16:28;;;;;;;16.85;10.4;;;;;;;-2.39;96.00098;95846.18;;;;
2021/04/15 04:17:34;;;;;;;16.6;10.55;;;;;;;-2.4;96.50195;95846.33;;;;
2021/04/15 04:18:42;;;;;;;16.6;10.55;;;;;;;-2.4;96.50195;95846.33;;;;
2021/04/15 04:19:48;;;;;;;16.6;10.55;;;;;;;-2.4;96.50195;95846.33;;;;
2021/04/15 04:20:52;;;;;;;16.6;10.55;;;;;;;-2.4;96.50195;95846.33;;;;
2021/04/15 04:21:59;;;;;;;16.6;10.55;;;;;;;-2.4;96.50195;95846.33;;;;
2021/04/15 04:23:09;;;;;;;16.6;10.55;;;;;;;-2.4;96.50195;95846.33;;;;
2021/04/15 04:24:22;;;;;;;16.6;10.55;;;;;;;-2.4;96.50195;95846.33;;;;
2021/04/15 04:25:29;;;;;;;16.6;10.55;;;;;;;-2.4;96.50195;95846.33;;;;
2021/04/15 04:26:38;;;;;;;16.6;10.55;;;;;;;-2.4;96.50195;95846.33;;;;
2021/04/15 04:27:44;;;;;;;16.6;10.55;;;;;;;-2.4;96.50195;95846.33;;;;
2021/04/15 04:28:52;;;;;;;15.2;10.2;;;;;;;-2.26;96.80273;95849.41;;;;
2021/04/15 04:30:07;;;;;;;15.2;10.2;;;;;;;-2.26;96.80273;95849.41;;;;
2021/04/15 04:31:11;;;;;;;15.2;10.2;;;;;;;-2.26;96.80273;95849.41;;;;
2021/04/15 04:32:21;;;;;;;15.2;10.2;;;;;;;-2.26;96.80273;95849.41;;;;
2021/04/15 04:33:25;;;;;;;15.2;10.2;;;;;;;-2.26;96.80273;95849.41;;;;
2021/04/15 04:34:39;;;;;;;15.2;10.2;;;;;;;-2.26;96.80273;95849.41;;;;
2021/04/15 04:35:41;;;;;;;15.2;10.2;;;;;;;-2.26;96.80273;95849.41;;;;
2021/04/15 04:36:45;;;;;;;15.2;10.2;;;;;;;-2.26;96.80273;95849.41;;;;
2021/04/15 04:37:49;;;;;;;15.2;10.2;;;;;;;-2.26;96.80273;95849.41;;;;
2021/04/15 04:38:52;;;;;;;14.9;10.05;;;;;;;-2.22;96.50391;95851.64;;;;
2021/04/15 04:39:55;;;;;;;14.9;10.05;;;;;;;-2.22;96.50391;95851.64;;;;
2021/04/15 04:40:57;;;;;;;14.9;10.05;;;;;;;-2.22;96.50391;95851.64;;;;
2021/04/15 04:42:07;;;;;;;14.9;10.05;;;;;;;-2.22;96.50391;95851.64;;;;
2021/04/15 04:43:19;;;;;;;14.9;10.05;;;;;;;-2.22;96.50391;95851.64;;;;
2021/04/15 04:44:24;;;;;;;14.9;10.05;;;;;;;-2.22;96.50391;95851.64;;;;
2021/04/15 04:45:32;;;;;;;14.9;10.05;;;;;;;-2.22;96.50391;95851.64;;;;
2021/04/15 04:46:34;;;;;;;14.9;10.05;;;;;;;-2.22;96.50391;95851.64;;;;
2021/04/15 04:47:41;;;;;;;14.9;10.05;;;;;;;-2.22;96.50391;95851.64;;;;
2021/04/15 04:48:46;;;;;;;14.9;10.05;;;;;;;-2.22;96.50391;95851.64;;;;
2021/04/15 04:49:54;;;;;;;14.85;9.649999;;;;;;;-2.24;96.68262;95859.78;;;;
2021/04/15 04:51:01;;;;;;;14.85;9.649999;;;;;;;-2.24;96.68262;95859.78;;;;
2021/04/15 04:52:05;;;;;;;14.85;9.649999;;;;;;;-2.24;96.68262;95859.78;;;;
2021/04/15 04:53:09;;;;;;;14.85;9.649999;;;;;;;-2.24;96.68262;95859.78;;;;
2021/04/15 04:54:12;;;;;;;14.85;9.649999;;;;;;;-2.24;96.68262;95859.78;;;;
2021/04/15 04:55:16;;;;;;;14.85;9.649999;;;;;;;-2.24;96.68262;95859.78;;;;
2021/04/15 04:56:24;;;;;;;14.85;9.649999;;;;;;;-2.24;96.68262;95859.78;;;;
2021/04/15 04:57:30;;;;;;;14.85;9.649999;;;;;;;-2.24;96.68262;95859.78;;;;
2021/04/15 04:58:35;;;;;;;14.85;9.649999;;;;;;;-2.24;96.68262;95859.78;;;;
2021/04/15 04:59:36;;;;;;;14.85;9.649999;;;;;;;-2.24;96.68262;95859.78;;;;
2021/04/15 05:00:41;;;;;;;18;10.45;;;;;;;-2.1;96.99414;95863.69;;;;
2021/04/15 05:01:44;;;;;;;18;10.45;;;;;;;-2.1;96.99414;95863.69;;;;
2021/04/15 05:02:45;;;;;;;18;10.45;;;;;;;-2.1;96.99414;95863.69;;;;
2021/04/15 05:03:50;;;;;;;18;10.45;;;;;;;-2.1;96.99414;95863.69;;;;
2021/04/15 05:04:57;;;;;;;18;10.45;;;;;;;-2.1;96.99414;95863.69;;;;
2021/04/15 05:06:01;;;;;;;18;10.45;;;;;;;-2.1;96.99414;95863.69;;;;
2021/04/15 05:07:03;;;;;;;18;10.45;;;;;;;-2.1;96.99414;95863.69;;;;
2021/04/15 05:08:06;;;;;;;18;10.45;;;;;;;-2.1;96.99414;95863.69;;;;
2021/04/15 05:09:11;;;;;;;18;10.45;;;;;;;-2.1;96.99414;95863.69;;;;
2021/04/15 05:10:18;;;;;;;18;10.45;;;;;;;-2.1;96.99414;95863.69;;;;
2021/04/15 05:11:22;;;;;;;22.55;11.8;;;;;;;-1.7;97.31152;95875.29;;;;
2021/04/15 05:12:27;;;;;;;22.55;11.8;;;;;;;-1.7;97.31152;95875.29;;;;
2021/04/15 05:13:29;;;;;;;22.55;11.8;;;;;;;-1.7;97.31152;95875.29;;;;
2021/04/15 05:14:30;;;;;;;22.55;11.8;;;;;;;-1.7;97.31152;95875.29;;;;
2021/04/15 05:15:31;;;;;;;22.55;11.8;;;;;;;-1.7;97.31152;95875.29;;;;
2021/04/15 05:16:32;;;;;;;22.55;11.8;;;;;;;-1.7;97.31152;95875.29;;;;
2021/04/15 05:17:37;;;;;;;22.55;11.8;;;;;;;-1.7;97.31152;95875.29;;;;
2021/04/15 05:18:40;;;;;;;22.55;11.8;;;;;;;-1.7;97.31152;95875.29;;;;
2021/04/15 05:19:40;;;;;;;22.55;11.8;;;;;;;-1.7;97.31152;95875.29;;;;
2021/04/15 05:20:41;;;;;;;22.55;11.8;;;;;;;-1.7;97.31152;95875.29;;;;
2021/04/15 05:21:42;;;;;;;18.8;10.65;;;;;;;-1.28;96.84961;95877.77;;;;
2021/04/15 05:22:45;;;;;;;18.8;10.65;;;;;;;-1.28;96.84961;95877.77;;;;
2021/04/15 05:23:53;;;;;;;18.8;10.65;;;;;;;-1.28;96.84961;95877.77;;;;
2021/04/15 05:25:02;;;;;;;18.8;10.65;;;;;;;-1.28;96.84961;95877.77;;;;
2021/04/15 05:26:08;;;;;;;18.8;10.65;;;;;;;-1.28;96.84961;95877.77;;;;
2021/04/15 05:27:13;;;;;;;18.8;10.65;;;;;;;-1.28;96.84961;95877.77;;;;
2021/04/15 05:28:17;;;;;;;18.8;10.65;;;;;;;-1.28;96.84961;95877.77;;;;
2021/04/15 05:29:20;;;;;;;18.8;10.65;;;;;;;-1.28;96.84961;95877.77;;;;
2021/04/15 05:30:23;;;;;;;18.8;10.65;;;;;;;-1.28;96.84961;95877.77;;;;
2021/04/15 05:31:35;;;;;;;18.8;10.65;;;;;;;-1.28;96.84961;95877.77;;;;
2021/04/15 05:32:40;;;;;;;13.75;9.4;;;;;;;-0.86;96.45996;95885.05;;;;
2021/04/15 05:33:43;;;;;;;13.75;9.4;;;;;;;-0.86;96.45996;95885.05;;;;
2021/04/15 05:34:44;;;;;;;13.75;9.4;;;;;;;-0.86;96.45996;95885.05;;;;
2021/04/15 05:35:48;;;;;;;13.75;9.4;;;;;;;-0.86;96.45996;95885.05;;;;
2021/04/15 05:36:58;;;;;;;13.75;9.4;;;;;;;-0.86;96.45996;95885.05;;;;
2021/04/15 05:38:01;;;;;;;13.75;9.4;;;;;;;-0.86;96.45996;95885.05;;;;
2021/04/15 05:39:02;;;;;;;13.75;9.4;;;;;;;-0.86;96.45996;95885.05;;;;
2021/04/15 05:40:09;;;;;;;13.75;9.4;;;;;;;-0.86;96.45996;95885.05;;;;
2021/04/15 05:41:11;;;;;;;13.75;9.4;;;;;;;-0.86;96.45996;95885.05;;;;
2021/04/15 05:42:19;;;;;;;13.75;9.4;;;;;;;-0.86;96.45996;95885.05;;;;
2021/04/15 05:43:27;;;;;;;16.65;9.949999;;;;;;;-0.4;96.09766;95879.49;;;;
2021/04/15 05:44:35;;;;;;;16.65;9.949999;;;;;;;-0.4;96.09766;95879.49;;;;
2021/04/15 05:45:41;;;;;;;16.65;9.949999;;;;;;;-0.4;96.09766;95879.49;;;;
2021/04/15 05:46:44;;;;;;;16.65;9.949999;;;;;;;-0.4;96.09766;95879.49;;;;
2021/04/15 05:47:49;;;;;;;16.65;9.949999;;;;;;;-0.4;96.09766;95879.49;;;;
2021/04/15 05:48:56;;;;;;;16.65;9.949999;;;;;;;-0.4;96.09766;95879.49;;;;
2021/04/15 05:50:01;;;;;;;16.65;9.949999;;;;;;;-0.4;96.09766;95879.49;;;;
2021/04/15 05:51:05;;;;;;;16.65;9.949999;;;;;;;-0.4;96.09766;95879.49;;;;
2021/04/15 05:52:12;;;;;;;16.65;9.949999;;;;;;;-0.4;96.09766;95879.49;;;;
2021/04/15 05:53:24;;;;;;;16.85;9.400001;;;;;;;0.09;95.85352;95883.78;;;;
2021/04/15 05:54:32;;;;;;;16.85;9.400001;;;;;;;0.09;95.85352;95883.78;;;;
2021/04/15 05:55:35;;;;;;;16.85;9.400001;;;;;;;0.09;95.85352;95883.78;;;;
2021/04/15 05:56:41;;;;;;;16.85;9.400001;;;;;;;0.09;95.85352;95883.78;;;;
2021/04/15 05:57:53;;;;;;;16.85;9.400001;;;;;;;0.09;95.85352;95883.78;;;;
2021/04/15 05:58:59;;;;;;;16.85;9.400001;;;;;;;0.09;95.85352;95883.78;;;;
2021/04/15 06:00:11;;;;;;;16.85;9.400001;;;;;;;0.09;95.85352;95883.78;;;;
2021/04/15 06:01:15;;;;;;;16.85;9.400001;;;;;;;0.09;95.85352;95883.78;;;;
2021/04/15 06:02:23;;;;;;;16.85;9.400001;;;;;;;0.09;95.85352;95883.78;;;;
2021/04/15 06:03:35;;;;;;;16.85;9.400001;;;;;;;0.09;95.85352;95883.78;;;;
2021/04/15 06:04:47;;;;;;;12.75;9.100001;;;;;;;0.51;95.26465;95883.23;;;;
2021/04/15 06:05:56;;;;;;;12.75;9.100001;;;;;;;0.51;95.26465;95883.23;;;;